Flight Track Log - Related Links

Times and Time Zones

All times are in EDT time to prevent confusion due to time zone crossing. See the UAL1202 flight status page for this flight to view local times or setup timezone preferences in your user account.

Time Position Orientation Groundspeed Altitude Reporting Facility
EDT Latitude Longitude Course Direction KTS MPH feet Rate Location/Type
Thu 10:52:03 PM 29.9406 -95.3405 165° South 193 222 1,500  Level FlightAware ADS-B
Thu 10:52:08 PM 29.9364 -95.3418 195° South 200 230 1,600 1,500 Climbing FlightAware ADS-B
Thu 10:52:11 PM 29.9336 -95.3432 203° Southwest 205 236 1,700 1,714 Climbing FlightAware ADS-B
Thu 10:52:15 PM 29.9302 -95.3454 209° Southwest 210 242 1,800 1,091 Climbing FlightAware ADS-B
Thu 10:52:22 PM 29.9254 -95.3500 220° Southwest 220 253 1,900 1,200 Climbing FlightAware ADS-B
Thu 10:52:30 PM 29.9201 -95.3581 233° Southwest 233 268 2,100 1,500 Climbing FlightAware ADS-B
Thu 10:52:34 PM 29.9182 -95.3628 245° Southwest 238 274 2,200 857 Climbing FlightAware ADS-B
Thu 10:52:37 PM 29.9170 -95.3666 250° West 243 280 2,200  Level FlightAware ADS-B
Thu 10:52:40 PM 29.9161 -95.3705 255° West 248 285 2,200 1,000 Level FlightAware ADS-B
Thu 10:52:43 PM 29.9156 -95.3744 262° West 252 290 2,300 1,500 Climbing FlightAware ADS-B
Thu 10:52:48 PM 29.9154 -95.3815 268° West 260 299 2,400 2,000 Climbing FlightAware ADS-B
Thu 10:52:55 PM 29.9167 -95.3909 279° West 259 298 2,700 2,727 Climbing FlightAware ADS-B
Thu 10:52:59 PM 29.9181 -95.3959 288° West 253 291 2,900 3,750 Climbing FlightAware ADS-B
Thu 10:53:03 PM 29.9201 -95.4009 295° West 247 284 3,200 4,500 Climbing FlightAware ADS-B
Thu 10:53:07 PM 29.9224 -95.4054 301° West 241 277 3,500 3,333 Climbing FlightAware ADS-B
Thu 10:53:12 PM 29.9257 -95.4103 308° West 239 275 3,700 3,000 Climbing FlightAware ADS-B
Thu 10:53:17 PM 29.9292 -95.4142 316° Northwest 238 274 4,000 3,000 Climbing FlightAware ADS-B
Thu 10:53:20 PM 29.9323 -95.4169 323° Northwest 238 274 4,100 750 Climbing FlightAware ADS-B
Thu 10:53:25 PM 29.9365 -95.4199 328° Northwest 240 276 4,100  Level FlightAware ADS-B
Thu 10:53:28 PM 29.9398 -95.4218 333° Northwest 241 277 4,100  Level FlightAware ADS-B
Thu 10:53:32 PM 29.9438 -95.4235 340° North 242 278 4,100  Level FlightAware ADS-B
Thu 10:53:38 PM 29.9509 -95.4253 348° North 242 278 4,100 706 Level FlightAware ADS-B
Thu 10:53:49 PM 29.9621 -95.4271 352° North 237 273 4,300 1,500 Climbing FlightAware ADS-B
Thu 10:53:58 PM 29.9719 -95.4289 350° North 238 274 4,600 1,846 Climbing FlightAware ADS-B
Thu 10:54:02 PM 29.9765 -95.4303 345° North 242 278 4,700 1,500 Climbing FlightAware ADS-B
Thu 10:54:10 PM 29.9850 -95.4336 341° North 253 291 4,900 2,885 Climbing FlightAware ADS-B
Thu 10:54:54 PM 30.0352 -95.4531 342° North 264 304 7,200 3,371 Climbing FlightAware ADS-B
Thu 10:55:39 PM 30.0881 -95.4738 341° North 263 303 9,900 3,000 Climbing FlightAware ADS-B
Thu 10:56:10 PM 30.1251 -95.4886 341° North 285 328 11,000 2,129 Climbing FlightAware ADS-B
Thu 10:57:12 PM 30.2097 -95.5222 341° North 325 374 13,200 2,436 Climbing FlightAware ADS-B
Thu 10:57:51 PM 30.2662 -95.5446 341° North 334 384 15,100 2,700 Climbing FlightAware ADS-B
Thu 10:58:32 PM 30.3274 -95.5690 341° North 344 396 16,800 2,548 Climbing FlightAware ADS-B
Thu 10:59:04 PM 30.3767 -95.5887 341° North 349 402 18,200 2,516 Climbing FlightAware ADS-B
Thu 10:59:34 PM 30.4233 -95.6073 341° North 356 410 19,400 2,308 Climbing FlightAware ADS-B
Thu 11:00:35 PM 30.5198 -95.6457 341° North 371 427 21,700 2,131 Climbing FlightAware ADS-B
Thu 11:01:21 PM 30.5930 -95.6827 335° Northwest 383 441 23,200 1,895 Climbing FlightAware ADS-B
Thu 11:01:51 PM 30.6420 -95.7089 335° Northwest 391 450 24,100 1,648 Climbing FlightAware ADS-B
Thu 11:02:52 PM 30.7448 -95.7640 335° Northwest 409 471 25,700 1,587 Climbing FlightAware ADS-B
Thu 11:03:52 PM 30.8511 -95.8210 335° Northwest 422 486 27,300 1,443 Climbing FlightAware ADS-B
Thu 11:05:55 PM 31.0747 -95.9414 335° Northwest 443 510 30,100 1,316 Climbing FlightAware ADS-B
Thu 11:07:08 PM 31.2150 -96.0040 341° North 457 526 31,600 1,187 Climbing FlightAware ADS-B
Thu 11:07:26 PM 31.2529 -96.0181 342° North 461 531 31,900 1,320 Climbing FlightAware ADS-B
Thu 11:07:58 PM 31.3183 -96.0434 342° North 462 532 32,700 1,370 Climbing FlightAware ADS-B
Thu 11:08:58 PM 31.4400 -96.0907 342° North 461 531 34,000 1,385 Climbing FlightAware ADS-B
Thu 11:09:29 PM 31.5015 -96.1147 342° North 457 526 34,800 1,574 Climbing FlightAware ADS-B
Thu 11:09:59 PM 31.5618 -96.1382 342° North 451 519 35,600 1,180 Climbing FlightAware ADS-B
Thu 11:10:30 PM 31.6217 -96.1616 342° North 450 518 36,000 148 Climbing FlightAware ADS-B
Thu 11:12:41 PM 31.8614 -96.3012 323° Northwest 438 504 36,000  Level FlightAware ADS-B
Thu 11:13:11 PM 31.9104 -96.3447 323° Northwest 439 505 36,000  Level FlightAware ADS-B
Thu 11:13:43 PM 31.9630 -96.3910 323° Northwest 438 504 36,000  Level FlightAware ADS-B
Thu 11:13:49 PM 31.9718 -96.3991 322° Northwest 438 504 36,000  Level FlightAware ADS-B
Thu 11:15:01 PM 32.0888 -96.5032 323° Northwest 437 503 36,000  Level FlightAware ADS-B
Thu 11:15:49 PM 32.1650 -96.5720 323° Northwest 434 499 36,000  Level FlightAware ADS-B
Thu 11:16:29 PM 32.2290 -96.6290 323° Northwest 432 497 36,000  Level FlightAware ADS-B
Thu 11:17:10 PM 32.2930 -96.6870 323° Northwest 430 495 36,000  Level FlightAware ADS-B
Thu 11:17:53 PM 32.3620 -96.7490 323° Northwest 428 493 36,000  Level FlightAware ADS-B
Thu 11:18:36 PM 32.4290 -96.8100 322° Northwest 428 493 36,000  Level FlightAware ADS-B
Thu 11:19:17 PM 32.4940 -96.8690 323° Northwest 427 491 36,000  Level FlightAware ADS-B
Thu 11:19:57 PM 32.5570 -96.9250 323° Northwest 426 490 36,000  Level FlightAware ADS-B
Thu 11:20:41 PM 32.6260 -96.9880 322° Northwest 424 488 36,000  Level FlightAware ADS-B
Thu 11:21:24 PM 32.6910 -97.0480 322° Northwest 424 488 36,000  Level FlightAware ADS-B
Thu 11:22:03 PM 32.7540 -97.1050 323° Northwest 434 499 36,000  Level FlightAware ADS-B
Thu 11:22:46 PM 32.8220 -97.1670 323° Northwest 435 501 36,000  Level FlightAware ADS-B
Thu 11:23:31 PM 32.8940 -97.2330 322° Northwest 436 502 36,000  Level FlightAware ADS-B
Thu 11:24:10 PM 32.9550 -97.2890 322° Northwest 437 503 36,000  Level FlightAware ADS-B
Thu 11:24:54 PM 33.0260 -97.3540 322° Northwest 437 503 36,000  Level FlightAware ADS-B
Thu 11:25:34 PM 33.0910 -97.4130 323° Northwest 436 502 36,000  Level FlightAware ADS-B
Thu 11:26:17 PM 33.1580 -97.4760 322° Northwest 437 503 36,000  Level FlightAware ADS-B
Thu 11:26:58 PM 33.2240 -97.5370 322° Northwest 438 504 36,000  Level FlightAware ADS-B
Thu 11:27:41 PM 33.2930 -97.6010 322° Northwest 438 504 36,000  Level FlightAware ADS-B
Thu 11:28:25 PM 33.3640 -97.6660 323° Northwest 438 504 36,000  Level FlightAware ADS-B
Thu 11:29:04 PM 33.4260 -97.7240 322° Northwest 438 504 36,000  Level FlightAware ADS-B
Thu 11:29:55 PM 33.5010 -97.7960 321° Northwest 438 504 36,000  Level FlightAware ADS-B
Thu 11:30:43 PM 33.5750 -97.8640 323° Northwest 434 499 36,000  Level FlightAware ADS-B
Thu 11:31:21 PM 33.6250 -97.9130 321° Northwest 434 499 36,000  Level FlightAware ADS-B
Thu 11:32:10 PM 33.6900 -97.9770 321° Northwest 434 499 36,000  Level FlightAware ADS-B
Thu 11:32:46 PM 33.7380 -98.0230 321° Northwest 434 499 36,000  Level FlightAware ADS-B
Thu 11:33:32 PM 33.8480 -98.1199 324° Northwest 427 491 36,000  Level FlightAware ADS-B
Thu 11:34:02 PM 33.8954 -98.1646 322° Northwest 427 491 36,000  Level FlightAware ADS-B
Thu 11:34:33 PM 33.9425 -98.2092 322° Northwest 425 489 36,000  Level FlightAware ADS-B
Thu 11:35:03 PM 33.9897 -98.2539 322° Northwest 424 488 36,000  Level FlightAware ADS-B
Thu 11:35:34 PM 34.0366 -98.2985 322° Northwest 424 488 36,000  Level FlightAware ADS-B
Thu 11:36:05 PM 34.0851 -98.3446 322° Northwest 426 490 36,000  Level FlightAware ADS-B
Thu 11:36:36 PM 34.1327 -98.3898 322° Northwest 426 490 36,000  Level FlightAware ADS-B
Thu 11:37:07 PM 34.1803 -98.4350 322° Northwest 426 490 36,000  Level FlightAware ADS-B
Thu 11:37:37 PM 34.2269 -98.4793 322° Northwest 425 489 36,000  Level FlightAware ADS-B
Thu 11:38:08 PM 34.2754 -98.5257 322° Northwest 425 489 36,000  Level FlightAware ADS-B
Thu 11:38:38 PM 34.3218 -98.5701 322° Northwest 424 488 36,000  Level FlightAware ADS-B
Thu 11:39:30 PM 34.4011 -98.6462 322° Northwest 423 487 36,000  Level FlightAware ADS-B
Thu 11:41:22 PM 34.5730 -98.8118 322° Northwest 422 486 36,000  Level FlightAware ADS-B
Thu 11:43:20 PM 34.7518 -98.9845 322° Northwest 418 481 36,000  Level FlightAware ADS-B
Thu 11:44:02 PM 34.8146 -99.0455 321° Northwest 418 481 36,000  Level FlightAware ADS-B
Thu 11:44:50 PM 34.8876 -99.1166 321° Northwest 417 480 36,000  Level FlightAware ADS-B
Thu 11:45:27 PM 34.9433 -99.1711 321° Northwest 417 480 36,000  Level FlightAware ADS-B
Thu 11:45:57 PM 34.9887 -99.2155 321° Northwest 418 481 36,000  Level FlightAware ADS-B
Thu 11:46:29 PM 35.0364 -99.2620 321° Northwest 418 481 36,000  Level FlightAware ADS-B
Thu 11:47:15 PM 35.1053 -99.3295 321° Northwest 413 475 36,000  Level FlightAware ADS-B
Thu 11:47:46 PM 35.1523 -99.3756 321° Northwest 411 473 36,000  Level FlightAware ADS-B
Thu 11:48:17 PM 35.1968 -99.4195 321° Northwest 409 471 36,000  Level FlightAware ADS-B
Thu 11:48:48 PM 35.2437 -99.4658 321° Northwest 409 471 36,000  Level FlightAware ADS-B
Thu 11:49:19 PM 35.2884 -99.5098 321° Northwest 406 467 36,000  Level FlightAware ADS-B
Thu 11:49:50 PM 35.3335 -99.5544 321° Northwest 405 466 36,000  Level FlightAware ADS-B
Thu 11:50:20 PM 35.3777 -99.5981 321° Northwest 404 465 36,000  Level FlightAware ADS-B
Thu 11:50:51 PM 35.4222 -99.6423 321° Northwest 403 464 36,000  Level FlightAware ADS-B
Thu 11:51:24 PM 35.4698 -99.6895 321° Northwest 404 465 36,000  Level FlightAware ADS-B
Thu 11:51:54 PM 35.5137 -99.7333 321° Northwest 407 468 36,000  Level FlightAware ADS-B
Thu 11:52:25 PM 35.5590 -99.7783 321° Northwest 408 470 36,000  Level FlightAware ADS-B
Thu 11:53:00 PM 35.6109 -99.8297 321° Northwest 409 471 36,000  Level FlightAware ADS-B
Thu 11:53:35 PM 35.6615 -99.8809 321° Northwest 409 471 36,000  Level FlightAware ADS-B
Thu 11:54:07 PM 35.7090 -99.9283 321° Northwest 407 468 36,000  Level FlightAware ADS-B
Thu 11:54:38 PM 35.7530 -99.9721 321° Northwest 401 461 36,000  Level FlightAware ADS-B
Thu 11:55:09 PM 35.7980 -100.0170 321° Northwest 401 461 36,000  Level FlightAware ADS-B
Thu 11:55:45 PM 35.8491 -100.0690 320° Northwest 399 459 36,000  Level FlightAware ADS-B
Thu 11:56:15 PM 35.8924 -100.1120 321° Northwest 399 459 36,000  Level FlightAware ADS-B
Thu 11:56:45 PM 35.9356 -100.1560 320° Northwest 399 459 36,000  Level FlightAware ADS-B
Thu 11:57:16 PM 35.9790 -100.2000 321° Northwest 399 459 36,000  Level FlightAware ADS-B
Thu 11:57:48 PM 36.0246 -100.2460 321° Northwest 397 457 36,000  Level FlightAware ADS-B
Thu 11:58:18 PM 36.0674 -100.2890 321° Northwest 396 456 36,000  Level FlightAware ADS-B
Thu 11:58:48 PM 36.1099 -100.3320 321° Northwest 395 455 36,000  Level FlightAware ADS-B
Thu 11:59:19 PM 36.1532 -100.3760 321° Northwest 395 455 36,000  Level FlightAware ADS-B
Thu 11:59:49 PM 36.1954 -100.4190 321° Northwest 393 452 36,000  Level FlightAware ADS-B
Fri 12:00:19 AM 36.2375 -100.4620 321° Northwest 392 451 36,000  Level FlightAware ADS-B
Fri 12:00:49 AM 36.2797 -100.5050 321° Northwest 392 451 36,000  Level FlightAware ADS-B
Fri 12:01:19 AM 36.3223 -100.5490 320° Northwest 392 451 36,000  Level FlightAware ADS-B
Fri 12:01:50 AM 36.3654 -100.5930 321° Northwest 394 453 36,000  Level FlightAware ADS-B
Fri 12:02:58 AM 36.4609 -100.6900 321° Northwest 396 456 36,000  Level FlightAware ADS-B
Fri 12:03:39 AM 36.5187 -100.7500 320° Northwest 395 455 36,000  Level FlightAware ADS-B
Fri 12:04:43 AM 36.6091 -100.8430 320° Northwest 397 457 36,000  Level FlightAware ADS-B
Fri 12:05:14 AM 36.6524 -100.8880 320° Northwest 396 456 36,000  Level FlightAware ADS-B
Fri 12:05:44 AM 36.6951 -100.9320 320° Northwest 396 456 36,000  Level FlightAware ADS-B
Fri 12:06:15 AM 36.7376 -100.9760 320° Northwest 397 457 36,000  Level FlightAware ADS-B
Fri 12:06:45 AM 36.7804 -101.0200 321° Northwest 398 458 36,000  Level FlightAware ADS-B
Fri 12:07:15 AM 36.8227 -101.0640 320° Northwest 398 458 36,000  Level FlightAware ADS-B
Fri 12:07:45 AM 36.8652 -101.1090 320° Northwest 400 460 36,000  Level FlightAware ADS-B
Fri 12:08:15 AM 36.9077 -101.1530 320° Northwest 400 460 36,000  Level FlightAware ADS-B
Fri 12:08:45 AM 36.9511 -101.1980 320° Northwest 402 463 36,000  Level FlightAware ADS-B
Fri 12:09:16 AM 36.9942 -101.2430 320° Northwest 405 466 36,000  Level FlightAware ADS-B
Fri 12:09:46 AM 37.0376 -101.2890 320° Northwest 407 468 36,000  Level FlightAware ADS-B
Fri 12:10:16 AM 37.0812 -101.3350 320° Northwest 408 470 36,000  Level FlightAware ADS-B
Fri 12:10:46 AM 37.1248 -101.3800 321° Northwest 408 470 36,000  Level FlightAware ADS-B
Fri 12:11:16 AM 37.1682 -101.4260 320° Northwest 409 471 36,000  Level FlightAware ADS-B
Fri 12:11:48 AM 37.2137 -101.4740 320° Northwest 406 467 36,000  Level FlightAware ADS-B
Fri 12:12:19 AM 37.2578 -101.5210 320° Northwest 404 465 36,000  Level FlightAware ADS-B
Fri 12:12:49 AM 37.3011 -101.5660 320° Northwest 403 464 36,000  Level FlightAware ADS-B
Fri 12:13:34 AM 37.3660 -101.6350 320° Northwest 405 466 36,000  Level FlightAware ADS-B
Fri 12:18:30 AM 37.7855 -102.0830 320° Northwest 400 460 36,000  Level FlightAware ADS-B
Fri 12:18:57 AM 37.8228 -102.1240 319° Northwest 401 461 36,000  Level FlightAware ADS-B
Fri 12:19:10 AM 37.8403 -102.1450 317° Northwest 402 463 36,000  Level FlightAware ADS-B
Fri 12:19:40 AM 37.8786 -102.1970 313° West 403 464 36,000  Level FlightAware ADS-B
Fri 12:20:11 AM 37.9180 -102.2500 313° West 405 466 36,000  Level FlightAware ADS-B
Fri 12:20:41 AM 37.9559 -102.3020 313° West 408 470 36,000  Level FlightAware ADS-B
Fri 12:21:11 AM 37.9956 -102.3550 314° West 408 470 36,000  Level FlightAware ADS-B
Fri 12:21:13 AM 37.9974 -102.3580 307° West 409 471 36,000  Level FlightAware ADS-B
Fri 12:21:42 AM 38.0349 -102.4090 313° West 409 471 36,000  Level FlightAware ADS-B
Fri 12:21:43 AM 38.0368 -102.4110 320° Northwest 409 471 36,000  Level FlightAware ADS-B
Fri 12:22:12 AM 38.0740 -102.4620 313° West 410 472 36,000  Level FlightAware ADS-B
Fri 12:22:14 AM 38.0758 -102.4650 307° West 410 472 36,000  Level FlightAware ADS-B
Fri 12:22:43 AM 38.1136 -102.5160 313° West 413 475 36,000  Level FlightAware ADS-B
Fri 12:22:46 AM 38.1174 -102.5210 314° West 413 475 36,000  Level FlightAware ADS-B
Fri 12:23:13 AM 38.1544 -102.5670 316° Northwest 414 476 36,000 -182 Level FlightAware ADS-B
Fri 12:23:19 AM 38.1628 -102.5770 317° Northwest 414 476 35,900 -1,000 Descending FlightAware ADS-B
Fri 12:23:43 AM 38.1964 -102.6180 316° Northwest 417 480 35,500 -1,029 Descending FlightAware ADS-B
Fri 12:23:54 AM 38.2112 -102.6360 316° Northwest 416 479 35,300 -968 Descending FlightAware ADS-B
Fri 12:24:14 AM 38.2400 -102.6720 316° Northwest 421 484 35,000 -800 Descending FlightAware ADS-B
Fri 12:24:24 AM 38.2537 -102.6880 317° Northwest 416 479 34,900 -774 Descending FlightAware ADS-B
Fri 12:24:45 AM 38.2827 -102.7240 316° Northwest 424 488 34,600 -1,059 Descending FlightAware ADS-B
Fri 12:25:15 AM 38.3258 -102.7770 316° Northwest 419 482 34,000 -1,100 Descending FlightAware ADS-B
Fri 12:25:45 AM 38.3674 -102.8280 316° Northwest 417 480 33,500 -984 Descending FlightAware ADS-B
Fri 12:26:16 AM 38.4098 -102.8800 316° Northwest 419 482 33,000 -984 Descending FlightAware ADS-B
Fri 12:26:46 AM 38.4520 -102.9320 316° Northwest 420 483 32,500 -984 Descending FlightAware ADS-B
Fri 12:27:17 AM 38.4947 -102.9850 316° Northwest 421 484 32,000 -984 Descending FlightAware ADS-B
Fri 12:27:47 AM 38.5367 -103.0370 316° Northwest 420 483 31,500 -984 Descending FlightAware ADS-B
Fri 12:28:18 AM 38.5798 -103.0900 316° Northwest 422 486 31,000 -984 Descending FlightAware ADS-B
Fri 12:28:48 AM 38.6222 -103.1430 316° Northwest 423 487 30,500 -1,000 Descending FlightAware ADS-B
Fri 12:29:18 AM 38.6644 -103.1960 316° Northwest 420 483 30,000 -984 Descending FlightAware ADS-B
Fri 12:29:49 AM 38.7063 -103.2480 316° Northwest 417 480 29,500 -984 Descending FlightAware ADS-B
Fri 12:30:19 AM 38.7485 -103.3000 316° Northwest 415 478 29,000 -984 Descending FlightAware ADS-B
Fri 12:30:50 AM 38.7900 -103.3520 316° Northwest 409 471 28,500 -984 Descending FlightAware ADS-B
Fri 12:31:20 AM 38.8307 -103.4030 316° Northwest 405 466 28,000 -1,082 Descending FlightAware ADS-B
Fri 12:31:51 AM 38.8719 -103.4550 316° Northwest 400 460 27,400 -1,082 Descending FlightAware ADS-B
Fri 12:32:21 AM 38.9117 -103.5050 316° Northwest 396 456 26,900 -984 Descending FlightAware ADS-B
Fri 12:32:52 AM 38.9512 -103.5550 315° West 395 455 26,400 -984 Descending FlightAware ADS-B
Fri 12:33:22 AM 38.9903 -103.6040 316° Northwest 392 451 25,900 -1,000 Descending FlightAware ADS-B
Fri 12:33:52 AM 39.0288 -103.6530 315° West 388 447 25,400 -1,000 Descending FlightAware ADS-B
Fri 12:34:22 AM 39.0675 -103.7020 315° West 385 443 24,900 -1,300 Descending FlightAware ADS-B
Fri 12:34:52 AM 39.1054 -103.7500 316° Northwest 378 435 24,100 -1,869 Descending FlightAware ADS-B
Fri 12:35:23 AM 39.1427 -103.7970 316° Northwest 370 426 23,000 -2,066 Descending FlightAware ADS-B
Fri 12:35:53 AM 39.1790 -103.8440 315° West 364 419 22,000 -2,000 Descending FlightAware ADS-B
Fri 12:36:23 AM 39.2146 -103.8890 316° Northwest 358 412 21,000 -2,000 Descending FlightAware ADS-B
Fri 12:36:53 AM 39.2496 -103.9330 316° Northwest 351 404 20,000 -1,869 Descending FlightAware ADS-B
Fri 12:37:24 AM 39.2845 -103.9780 315° West 344 396 19,100 -1,869 Descending FlightAware ADS-B
Fri 12:37:54 AM 39.3185 -104.0210 316° Northwest 337 388 18,100 -2,000 Descending FlightAware ADS-B
Fri 12:38:24 AM 39.3513 -104.0640 315° West 331 381 17,100 -2,100 Descending FlightAware ADS-B
Fri 12:38:54 AM 39.3839 -104.1050 316° Northwest 330 380 16,000 -1,967 Descending FlightAware ADS-B
Fri 12:39:25 AM 39.4171 -104.1480 315° West 325 374 15,100 -1,180 Descending FlightAware ADS-B
Fri 12:39:55 AM 39.4484 -104.1880 315° West 314 361 14,800 -300 Descending FlightAware ADS-B
Fri 12:40:25 AM 39.4787 -104.2270 315° West 298 343 14,800 -295 Level FlightAware ADS-B
Fri 12:40:56 AM 39.5086 -104.2660 315° West 311 358 14,500 -787 Descending FlightAware ADS-B
Fri 12:41:26 AM 39.5397 -104.3060 315° West 317 365 14,000 -1,000 Descending FlightAware ADS-B
Fri 12:41:56 AM 39.5718 -104.3470 315° West 318 366 13,500 -984 Descending FlightAware ADS-B
Fri 12:42:27 AM 39.6031 -104.3880 315° West 317 365 13,000 -689 Descending FlightAware ADS-B
Fri 12:42:57 AM 39.6343 -104.4290 315° West 317 365 12,800 -200 Descending FlightAware ADS-B
Fri 12:43:27 AM 39.6660 -104.4700 315° West 315 362 12,800  Level FlightAware ADS-B
Fri 12:43:58 AM 39.6972 -104.5100 315° West 315 362 12,800  Level FlightAware ADS-B
Fri 12:44:28 AM 39.7288 -104.5510 315° West 315 362 12,800  Level FlightAware ADS-B
Fri 12:44:41 AM 39.7416 -104.5680 314° West 314 361 12,800  Level FlightAware ADS-B
Fri 12:44:45 AM 39.7457 -104.5730 317° Northwest 314 361 12,800 -857 Level FlightAware ADS-B
Fri 12:44:48 AM 39.7502 -104.5770 326° Northwest 311 358 12,700 -1,500 Descending FlightAware ADS-B
Fri 12:44:53 AM 39.7552 -104.5810 328° Northwest 312 359 12,600 -2,400 Descending FlightAware ADS-B
Fri 12:44:58 AM 39.7632 -104.5850 339° North 317 365 12,300 -3,000 Descending FlightAware ADS-B
Fri 12:45:03 AM 39.7704 -104.5880 342° North 321 369 12,100 -2,000 Descending FlightAware ADS-B
Fri 12:45:07 AM 39.7758 -104.5890 352° North 322 371 12,000 -1,636 Descending FlightAware ADS-B
Fri 12:45:14 AM 39.7859 -104.5890 360° North 322 371 11,800 -1,692 Descending FlightAware ADS-B
Fri 12:45:46 AM 39.8334 -104.5870 North 321 369 10,900 -968 Descending FlightAware ADS-B
Fri 12:46:16 AM 39.8782 -104.5860 North 307 353 10,800 -98 Descending FlightAware ADS-B
Fri 12:46:47 AM 39.9191 -104.5860 360° North 277 319 10,800 -492 Level FlightAware ADS-B
Fri 12:47:17 AM 39.9567 -104.5860 360° North 266 306 10,300 -1,105 Descending FlightAware ADS-B
Fri 12:47:25 AM 39.9663 -104.5860 360° North 265 305 10,100 -1,250 Descending FlightAware ADS-B
Fri 12:47:41 AM 39.9853 -104.5860 360° North 256 295 9,800 -1,200 Descending FlightAware ADS-B
Fri 12:48:00 AM 40.0075 -104.5870 358° North 252 290 9,400 -1,304 Descending FlightAware ADS-B
Fri 12:48:04 AM 40.0119 -104.5880 350° North 245 282 9,300 -1,333 Descending FlightAware ADS-B
Fri 12:48:09 AM 40.0180 -104.5900 346° North 239 275 9,200 -667 Descending FlightAware ADS-B
Fri 12:48:13 AM 40.0211 -104.5930 323° Northwest 232 267 9,200 -857 Level FlightAware ADS-B
Fri 12:48:16 AM 40.0243 -104.5950 334° Northwest 229 264 9,100 -1,714 Descending FlightAware ADS-B
Fri 12:48:20 AM 40.0274 -104.5990 315° West 226 260 9,000 -1,500 Descending FlightAware ADS-B
Fri 12:48:24 AM 40.0298 -104.6020 316° Northwest 223 257 8,900 -1,714 Descending FlightAware ADS-B
Fri 12:48:27 AM 40.0319 -104.6060 304° West 223 257 8,800 -3,000 Descending FlightAware ADS-B
Fri 12:48:30 AM 40.0336 -104.6090 307° West 224 258 8,600 -2,571 Descending FlightAware ADS-B
Fri 12:48:34 AM 40.0351 -104.6140 291° West 225 259 8,500 -2,571 Descending FlightAware ADS-B
Fri 12:48:37 AM 40.0362 -104.6180 290° West 225 259 8,300 -2,571 Descending FlightAware ADS-B
Fri 12:48:41 AM 40.0372 -104.6230 285° West 226 260 8,200 -2,571 Descending FlightAware ADS-B
Fri 12:48:44 AM 40.0377 -104.6280 277° West 226 260 8,000 -2,571 Descending FlightAware ADS-B
Fri 12:48:48 AM 40.0378 -104.6330 271° West 226 260 7,900 -1,500 Descending FlightAware ADS-B
Fri 12:48:52 AM 40.0376 -104.6380 267° West 225 259 7,800 -2,250 Descending FlightAware ADS-B
Fri 12:48:56 AM 40.0370 -104.6440 263° West 224 258 7,600 -2,571 Descending FlightAware ADS-B
Fri 12:48:59 AM 40.0362 -104.6480 255° West 223 257 7,500 -1,714 Descending FlightAware ADS-B
Fri 12:49:03 AM 40.0350 -104.6530 253° West 222 255 7,400 -1,500 Descending FlightAware ADS-B
Fri 12:49:07 AM 40.0338 -104.6580 253° West 223 257 7,300 -750 Descending FlightAware ADS-B
Fri 12:49:11 AM 40.0321 -104.6620 241° Southwest 223 257 7,300 -750 Level FlightAware ADS-B
Fri 12:49:15 AM 40.0303 -104.6670 245° Southwest 217 250 7,200 -1,333 Descending FlightAware ADS-B
Fri 12:49:20 AM 40.0275 -104.6720 234° Southwest 212 244 7,100 -750 Descending FlightAware ADS-B
Fri 12:49:23 AM 40.0251 -104.6750 224° Southwest 207 238 7,100  Level FlightAware ADS-B
Fri 12:49:27 AM 40.0227 -104.6780 224° Southwest 201 231 7,100 -667 Level FlightAware ADS-B
Fri 12:49:32 AM 40.0193 -104.6820 222° Southwest 194 223 7,000 -750 Descending FlightAware ADS-B
Fri 12:49:35 AM 40.0171 -104.6830 199° South 189 217 7,000 -1,000 Level FlightAware ADS-B
Fri 12:49:38 AM 40.0147 -104.6850 213° Southwest 186 214 6,900 -1,000 Descending FlightAware ADS-B
Fri 12:49:41 AM 40.0122 -104.6860 197° South 188 216 6,900  Level FlightAware ADS-B
Fri 12:49:45 AM 40.0083 -104.6870 191° South 185 213 6,900  Level FlightAware ADS-B
Fri 12:49:49 AM 40.0053 -104.6880 194° South 185 213 6,900 -667 Level FlightAware ADS-B
Fri 12:49:54 AM 40.0015 -104.6870 169° South 179 206 6,800 -462 Descending FlightAware ADS-B
Fri 12:50:02 AM 39.9947 -104.6870 180° South 175 201 6,800  Level FlightAware ADS-B
Fri 12:50:06 AM 39.9915 -104.6870 180° South 175 201 6,800 -667 Level FlightAware ADS-B
Fri 12:50:11 AM 39.9874 -104.6860 169° South 175 201 6,700 -500 Descending FlightAware ADS-B
Fri 12:50:18 AM 39.9813 -104.6860 180° South 173 199 6,700 -375 Level FlightAware ADS-B
Fri 12:50:27 AM 39.9748 -104.6860 180° South 171 197 6,600 -1,059 Descending FlightAware ADS-B
Fri 12:50:35 AM 39.9678 -104.6860 180° South 170 196 6,400 -1,000 Descending FlightAware ADS-B
Fri 12:50:45 AM 39.9605 -104.6860 180° South 168 193 6,300 -706 Descending FlightAware ADS-B
Fri 12:50:52 AM 39.9549 -104.6860 180° South 167 192 6,200 -857 Descending FlightAware ADS-B
Fri 12:50:59 AM 39.9492 -104.6860 180° South 167 192 6,100 -706 Descending FlightAware ADS-B
Fri 12:51:09 AM 39.9422 -104.6870 186° South 167 192 6,000 -857 Descending FlightAware ADS-B
Fri 12:51:20 AM 39.9336 -104.6870 180° South 162 186 5,800 -783 Descending FlightAware ADS-B
Fri 12:51:32 AM 39.9241 -104.6870 180° South 161 185 5,700 -818 Descending FlightAware ADS-B
Fri 12:51:42 AM 39.9174 -104.6870 180° South 161 185 5,500 -960 Descending FlightAware ADS-B
Fri 12:51:57 AM 39.9061 -104.6870 180° South 162 186 5,300 -750 Descending FlightAware ADS-B
Fri 12:52:06 AM 39.8994 -104.6870 180° South 162 186 5,200 -706 Descending FlightAware ADS-B
Fri 12:52:14 AM 39.8934 -104.6870 180° South 162 186 5,100 -750 Descending FlightAware ADS-B

Login

Don't have an account? Register now (free) for customized features, flight alerts, and more!